Data for 07/07/2013

Time Sea-Level Adjusted Pressure Absolute Pressure Temperature Relative Humidity Dew Point   
(mb) (inHg) (mb) (inHg) (C) (F) (%) (C) (F)
00:05 1017 30.03 846 24.98 16.1 61 69 10.5 50.9
00:10 1017 30.03 846 24.98 16.1 60.9 69 10.4 50.7
00:15 1017 30.03 846 24.98 16.1 60.9 69 10.5 50.8
00:20 1017 30.03 846 24.98 16.1 60.9 68 10.3 50.5
00:25 1017 30.03 846 24.98 16.1 61 68 10.3 50.5
00:30 1017 30.03 846 24.98 16 60.7 69 10.3 50.6
00:35 1017 30.03 846 24.98 15.9 60.6 69 10.2 50.4
00:40 1017 30.03 846 24.98 16 60.7 68 10.1 50.2
00:45 1017 30.03 846 24.98 16 60.8 68 10.1 50.2
00:50 1017 30.03 846 24.98 15.9 60.7 68 10.2 50.3
00:55 1017 30.03 846 24.98 15.8 60.5 69 10.2 50.3
01:00 1017 30.03 846 24.98 15.7 60.3 70 10.3 50.5
01:05 1017 30.03 846 24.98 15.7 60.2 70 10.3 50.5
01:10 1017 30.03 846 24.98 15.6 60 71 10.3 50.5
01:15 1017 30.03 846 24.98 15.5 59.9 70 10.1 50.2
01:20 1017 30.03 846 24.98 15.5 60 69 10 50
01:25 1017 30.03 846 24.98 15.5 59.9 69 10 50
01:30 1017 30.03 846 24.98 15.4 59.8 70 10 50
01:35 1017 30.03 846 24.98 15.4 59.7 70 10 50.1
01:40 1017 30.03 846 24.98 15.3 59.6 70 10 49.9
01:45 1017 30.03 846 24.98 15.3 59.6 70 10 50
01:50 1017 30.03 846 24.98 15.2 59.4 71 10.1 50.1
01:55 1017 30.03 846 24.98 15 59 72 10.1 50.1
02:00 1017 30.03 846 24.98 14.8 58.6 73 10.1 50.2
02:05 1017 30.03 846 24.98 14.6 58.3 74 10 50
02:10 1017 30.03 846 24.98 14.6 58.2 74 10 49.9
02:15 1017 30.03 846 24.98 14.5 58.1 73 9.8 49.6
02:20 1017 30.03 846 24.98 14.5 58 74 9.9 49.8
02:25 1017 30.03 846 24.98 14.5 58 74 9.8 49.7
02:30 1017 30.03 846 24.98 14.4 57.9 74 9.9 49.7
02:35 1017 30.03 846 24.98 14.2 57.6 74 9.8 49.6
02:40 1017 30.03 846 24.98 14.2 57.6 74 9.7 49.4
02:45 1017 30.03 846 24.98 14.2 57.5 74 9.7 49.5
02:50 1017 30.03 846 24.98 14.2 57.5 74 9.6 49.3
02:55 1017 30.03 846 24.98 14.1 57.3 75 9.7 49.5
03:00 1016 30 846 24.98 14 57.2 75 9.7 49.4
03:05 1016 30 846 24.98 14 57.2 75 9.6 49.2
03:10 1016 30 846 24.98 13.9 57 75 9.6 49.2
03:15 1016 30 846 24.98 13.8 56.8 74 9.3 48.8
03:20 1016 30 846 24.98 13.9 57.1 73 9.2 48.5
03:25 1016 30 846 24.98 14.1 57.4 72 9.1 48.4
03:30 1016 30 846 24.98 14.2 57.5 71 9.1 48.4
03:35 1016 30 846 24.98 14.1 57.4 73 9.3 48.8
03:40 1017 30.03 846 24.98 13.9 57.1 74 9.4 48.9
03:45 1017 30.03 846 24.98 13.8 56.8 74 9.2 48.6
03:50 1017 30.03 846 24.98 13.8 56.9 73 9.1 48.4
03:55 1016 30 846 24.98 13.8 56.8 72 9 48.2
04:00 1017 30.03 846 24.98 13.8 56.9 72 8.9 48.1
04:05 1017 30.03 846 24.98 13.8 56.8 72 8.9 48
04:10 1017 30.03 846 24.98 13.7 56.7 72 8.9 48
04:15 1017 30.03 846 24.98 13.7 56.6 72 8.7 47.7
04:20 1017 30.03 846 24.98 13.7 56.7 70 8.5 47.2
04:25 1017 30.03 846 24.98 13.9 56.9 70 8.5 47.3
04:30 1017 30.03 846 24.98 13.9 57 70 8.6 47.5
04:35 1017 30.03 846 24.98 13.8 56.8 70 8.5 47.2
04:40 1017 30.03 846 24.98 13.8 56.9 70 8.4 47.2
04:45 1017 30.03 846 24.98 13.9 57 69 8.3 47
04:50 1017 30.03 846 24.98 13.8 56.9 70 8.5 47.2
04:55 1017 30.03 846 24.98 13.6 56.4 72 8.6 47.4
05:00 1017 30.03 846 24.98 13.3 55.9 73 8.5 47.4
05:05 1017 30.03 847 25.01 13.2 55.8 73 8.5 47.2
05:10 1017 30.03 846 24.98 13.2 55.7 72 8.3 47
05:15 1017 30.03 847 25.01 13.3 55.9 72 8.4 47.1
05:20 1017 30.03 847 25.01 13.3 56 71 8.2 46.8
05:25 1017 30.03 847 25.01 13.6 56.6 69 8.1 46.6
05:30 1017 30.03 847 25.01 13.9 57 68 8.2 46.8
05:35 1018 30.06 847 25.01 13.9 57 68 8.1 46.5
05:40 1018 30.06 847 25.01 14 57.3 68 8.3 46.9
05:45 1018 30.06 847 25.01 13.8 56.8 68 8 46.5
05:50 1018 30.06 847 25.01 13.7 56.7 68 8 46.4
05:55 1018 30.06 847 25.01 13.7 56.6 68 8 46.4
06:00 1018 30.06 847 25.01 13.8 56.8 67 7.8 46.1
06:05 1018 30.06 847 25.01 14.1 57.3 67 8 46.5
06:10 1018 30.06 847 25.01 14.3 57.8 66 8 46.5
06:15 1018 30.06 847 25.01 14.6 58.3 65 8.2 46.8
06:20 1018 30.06 847 25.01 14.9 58.8 64 8.2 46.7
06:25 1018 30.06 847 25.01 15.4 59.6 62 8.3 46.9
06:30 1018 30.06 847 25.01 15.7 60.2 62 8.5 47.3
06:35 1018 30.06 847 25.01 15.9 60.6 61 8.6 47.4
06:40 1018 30.06 847 25.01 16 60.9 62 8.8 47.8
06:45 1018 30.06 847 25.01 16 60.8 63 9 48.2
06:50 1018 30.06 847 25.01 16 60.9 64 9.2 48.6
06:55 1018 30.06 847 25.01 16.3 61.4 62 9.2 48.6
07:00 1018 30.06 847 25.01 16.6 61.9 63 9.5 49.2
07:05 1018 30.06 847 25.01 16.8 62.3 62 9.7 49.4
07:10 1018 30.06 847 25.01 17.2 62.9 62 10 50
07:15 1018 30.06 847 25.01 17.1 62.7 62 9.9 49.8
07:20 1018 30.06 847 25.01 17.2 62.9 63 10.2 50.3
07:25 1018 30.06 847 25.01 17.3 63.1 62 10.1 50.2
07:30 1018 30.06 847 25.01 17.6 63.7 61 10 50
07:35 1018 30.06 847 25.01 17.8 64.1 61 10.2 50.3
07:40 1018 30.06 847 25.01 18 64.4 60 10.1 50.2
07:45 1018 30.06 847 25.01 17.9 64.2 60 10 50
07:50 1018 30.06 847 25.01 18.3 65 58 10 49.9
07:55 1018 30.06 847 25.01 18.4 65 58 10.2 50.3
08:00 1018 30.06 847 25.01 18.5 65.3 57 10 50
08:05 1018 30.06 847 25.01 18.6 65.5 57 10 50.1
08:10 1018 30.06 847 25.01 18.6 65.5 57 10 49.9
08:15 1018 30.06 847 25.01 18.9 66 55 9.8 49.7
08:20 1018 30.06 847 25.01 19 66.2 55 9.9 49.8
08:25 1018 30.06 847 25.01 19.4 66.9 53 9.8 49.6
08:30 1018 30.06 847 25.01 19.6 67.2 53 9.9 49.8
08:35 1018 30.06 847 25.01 19.5 67.2 53 9.7 49.5
08:40 1018 30.06 847 25.01 19.7 67.5 52 9.8 49.7
08:45 1018 30.06 847 25.01 19.8 67.6 53 10.1 50.2
08:50 1018 30.06 847 25.01 19.7 67.5 52 9.6 49.3
08:55 1018 30.06 847 25.01 20.7 69.3 48 9.5 49
09:00 1018 30.06 847 25.01 20.3 68.5 51 9.8 49.7
09:05 1018 30.06 847 25.01 20.5 68.9 49 9.6 49.3
09:10 1018 30.06 847 25.01 21 69.7 47 9.5 49.2
09:15 1018 30.06 847 25.01 21.5 70.6 46 9.5 49.1
09:20 1018 30.06 847 25.01 21.5 70.7 48 10.2 50.4
09:25 1018 30.06 847 25.01 21.7 71.1 46 9.8 49.7
09:30 1018 30.06 847 25.01 21.4 70.6 48 10 50
09:35 1018 30.06 847 25.01 21.5 70.6 46 9.4 48.8
09:40 1018 30.06 847 25.01 21.7 71.1 45 9.5 49.2
09:45 1018 30.06 847 25.01 22 71.6 43 8.9 48
09:50 1017 30.03 847 25.01 22.4 72.3 43 9.5 49
09:55 1017 30.03 847 25.01 22.5 72.4 42 9.2 48.6
10:00 1017 30.03 847 25.01 22.6 72.6 42 9.2 48.5
10:05 1017 30.03 847 25.01 23.2 73.7 37 8 46.5
10:10 1017 30.03 847 25.01 23.8 74.9 35 7.9 46.1
10:15 1017 30.03 847 25.01 23.7 74.7 33 6.7 44
10:20 1017 30.03 847 25.01 23.9 75.1 35 7.9 46.2
10:25 1017 30.03 847 25.01 24.3 75.7 32 6.9 44.4
10:30 1017 30.03 847 25.01 24.7 76.5 32 7 44.5
10:35 1017 30.03 847 25.01 24.6 76.3 33 7.3 45.1
10:40 1017 30.03 847 25.01 24.1 75.3 34 7.5 45.6
10:45 1017 30.03 846 24.98 24.9 76.9 31 6.8 44.2
10:50 1017 30.03 846 24.98 25 77.1 33 8 46.4
10:55 1017 30.03 846 24.98 24.9 76.7 33 7.8 46
11:00 1017 30.03 846 24.98 25.3 77.6 32 7.7 45.8
11:05 1017 30.03 846 24.98 26.1 79 37 10.4 50.7
11:10 1017 30.03 846 24.98 25.7 78.3 41 11.7 53.1
11:15 1017 30.03 846 24.98 24.7 76.4 41 10.6 51.1
11:20 1017 30.03 846 24.98 25.6 78 38 10.6 51
11:25 1017 30.03 846 24.98 25.3 77.6 37 9.7 49.4
11:30 1017 30.03 846 24.98 26.2 79.2 34 9.4 48.9
11:35 1017 30.03 846 24.98 26.1 79 38 10.9 51.5
11:40 1017 30.03 846 24.98 25 77 38 10 50
11:45 1017 30.03 846 24.98 25.4 77.7 37 9.8 49.6
11:50 1017 30.03 846 24.98 25 77 37 9.6 49.3
11:55 1017 30.03 846 24.98 25.7 78.2 35 9.4 48.9
12:00 1017 30.03 846 24.98 26 78.7 34 9.2 48.5
12:05 1017 30.03 846 24.98 26.1 78.9 34 9.3 48.7
12:10 1017 30.03 846 24.98 26.1 78.9 35 9.6 49.3
12:15 1017 30.03 846 24.98 26.4 79.5 32 8.7 47.7
12:20 1017 30.03 846 24.98 26.4 79.6 33 9.2 48.5
12:25 1016 30 846 24.98 26 78.8 30 7.4 45.3
12:30 1016 30 846 24.98 27.3 81.1 30 8.3 46.9
12:35 1016 30 845 24.95 27.6 81.7 30 8.9 48
12:40 1016 30 845 24.95 27.8 82 29 8.2 46.8
12:45 1016 30 845 24.95 28.1 82.6 27 7.5 45.5
12:50 1016 30 845 24.95 28.3 82.9 26 7.3 45.1
12:55 1016 30 845 24.95 28.5 83.3 25 7.1 44.7
13:00 1016 30 845 24.95 28.8 83.8 24 6.2 43.2
13:05 1016 30 845 24.95 28.4 83.1 25 6.7 44
13:10 1016 30 845 24.95 28.1 82.5 26 7.2 45
13:15 1016 30 845 24.95 27.9 82.2 25 6.5 43.7
13:20 1016 30 845 24.95 27.7 81.9 21 4 39.1
13:25 1016 30 845 24.95 27.2 80.9 25 6 42.8
13:30 1016 30 845 24.95 26.8 80.3 25 5.4 41.7
13:35 1016 30 845 24.95 26.4 79.6 22 3.2 37.8
13:40 1016 30 845 24.95 26.3 79.3 21 2.2 36
13:45 1016 30 845 24.95 26.2 79.1 22 3.2 37.7
13:50 1016 30 845 24.95 26.3 79.4 24 4.3 39.8
13:55 1016 30 845 24.95 26.1 79 25 4.8 40.6
14:00 1016 30 845 24.95 26.4 79.6 25 5.3 41.5
14:05 1017 30.03 846 24.98 26.5 79.6 25 4.9 40.9
14:10 1017 30.03 846 24.98 25.3 77.5 38 10.2 50.3
14:15 1017 30.03 846 24.98 24 75.2 34 7.5 45.5
14:20 1017 30.03 846 24.98 23.9 75 25 2.7 36.8
14:25 1017 30.03 846 24.98 23.8 74.8 23 1.7 35.1
14:30 1017 30.03 846 24.98 23.5 74.3 24 1.8 35.3
14:35 1017 30.03 846 24.98 23.2 73.8 27 3.3 37.9
14:40 1017 30.03 846 24.98 23.2 73.7 23 1.3 34.4
14:45 1017 30.03 846 24.98 23.9 74.9 23 2 35.6
14:50 1016 30 846 24.98 23.5 74.4 24 2.1 35.8
14:55 1016 30 846 24.98 23.2 73.7 25 2.3 36.1
15:00 1016 30 846 24.98 22.8 73 26 2.3 36.1
15:05 1016 30 846 24.98 23 73.3 25 1.8 35.3
15:10 1016 30 845 24.95 23 73.4 26 2.7 36.9
15:15 1016 30 845 24.95 22.6 72.7 26 2.5 36.4
15:20 1016 30 845 24.95 22.7 72.9 25 2 35.5
15:25 1016 30 845 24.95 23 73.3 24 1.6 34.8
15:30 1016 30 845 24.95 23 73.4 25 2.3 36.2
15:35 1016 30 845 24.95 23.1 73.5 24 1.7 35.1
15:40 1016 30 845 24.95 23.3 73.9 26 3.1 37.6
15:45 1016 30 845 24.95 23.2 73.7 27 3.2 37.7
15:50 1016 30 845 24.95 23.3 74 23 1.4 34.6
15:55 1015 29.97 845 24.95 23.3 73.9 26 2.7 36.9
16:00 1015 29.97 844 24.92 23 73.3 25 2.3 36.1
16:05 1015 29.97 844 24.92 22.9 73.2 26 2.7 36.9
16:10 1015 29.97 844 24.92 23 73.3 25 2.2 35.9
16:15 1015 29.97 844 24.92 23 73.3 25 2.1 35.8
16:20 1015 29.97 844 24.92 23.1 73.5 24 1.8 35.3
16:25 1015 29.97 844 24.92 23.5 74.2 24 2.1 35.7
16:30 1015 29.97 844 24.92 23.6 74.5 25 2.6 36.7
16:35 1015 29.97 844 24.92 23.3 73.9 25 2.4 36.4
16:40 1015 29.97 844 24.92 23 73.5 26 2.9 37.2
16:45 1015 29.97 844 24.92 22.9 73.3 26 2.6 36.8
16:50 1015 29.97 845 24.95 23.1 73.5 26 2.9 37.2
16:55 1016 30 845 24.95 23.6 74.5 23 1.6 34.8
17:00 1016 30 845 24.95 24 75.3 24 2.4 36.3
17:05 1016 30 845 24.95 23.9 75 25 2.9 37.3
17:10 1016 30 845 24.95 23.7 74.7 26 3.1 37.5
17:15 1016 30 845 24.95 23.3 73.9 26 2.7 36.8
17:20 1015 29.97 845 24.95 23.2 73.8 25 2.4 36.3
17:25 1016 30 845 24.95 23.4 74 25 2.3 36.2
17:30 1016 30 845 24.95 23.4 74.1 24 2.1 35.7
17:35 1016 30 845 24.95 23.5 74.4 25 2.7 36.9
17:40 1016 30 845 24.95 23.6 74.5 24 2 35.7
17:45 1016 30 845 24.95 23.8 74.8 25 2.5 36.6
17:50 1016 30 845 24.95 23.8 74.9 26 3.5 38.3
17:55 1016 30 845 24.95 23.5 74.2 30 4.9 40.8
18:00 1016 30 845 24.95 22.8 73.1 29 4.2 39.6
18:05 1016 30 845 24.95 22.9 73.2 30 4.4 39.9
18:10 1016 30 845 24.95 23 73.4 30 4.9 40.8
18:15 1015 29.97 845 24.95 23 73.4 29 4.4 40
18:20 1015 29.97 845 24.95 23 73.3 31 5.2 41.4
18:25 1015 29.97 845 24.95 22.7 72.9 32 5.4 41.7
18:30 1015 29.97 845 24.95 22.6 72.6 32 5.1 41.2
18:35 1015 29.97 845 24.95 22.5 72.6 31 5 41
18:40 1015 29.97 845 24.95 22.5 72.6 32 5.2 41.4
18:45 1015 29.97 845 24.95 22.5 72.5 31 5 40.9
18:50 1015 29.97 845 24.95 22.4 72.4 33 5.4 41.7
18:55 1016 30 845 24.95 22.3 72.1 33 5.6 42
19:00 1016 30 845 24.95 22.2 72 33 5.4 41.7
19:05 1016 30 845 24.95 22.2 72 33 5.3 41.5
19:10 1016 30 845 24.95 22.3 72.1 32 5 41
19:15 1016 30 845 24.95 22.3 72.2 32 5.2 41.4
19:20 1016 30 845 24.95 22.4 72.2 33 5.4 41.7
19:25 1016 30 845 24.95 22.3 72.1 33 5.4 41.8
19:30 1015 29.97 845 24.95 22.1 71.7 33 5.4 41.7
19:35 1016 30 845 24.95 21.9 71.4 34 5.6 42.1
19:40 1016 30 845 24.95 21.7 71 37 6.4 43.5
19:45 1016 30 845 24.95 21.5 70.7 36 6 42.9
19:50 1016 30 845 24.95 21.5 70.8 35 5.4 41.8
19:55 1016 30 845 24.95 21.5 70.6 35 5.6 42.1
20:00 1016 30 845 24.95 21.5 70.6 34 5.1 41.2
20:05 1016 30 845 24.95 21.5 70.7 34 5.1 41.2
20:10 1016 30 845 24.95 21.3 70.3 36 5.6 42.2
20:15 1016 30 845 24.95 20.9 69.6 37 5.7 42.3
20:20 1016 30 845 24.95 20.8 69.4 36 5.5 41.8
20:25 1016 30 845 24.95 20.7 69.3 36 5.2 41.4
20:30 1016 30 845 24.95 20.6 69.1 37 5.7 42.2
20:35 1016 30 845 24.95 20.5 68.9 37 5.6 42.1
20:40 1016 30 845 24.95 20.4 68.8 38 5.6 42.2
20:45 1016 30 846 24.98 20.3 68.6 38 5.6 42.1
20:50 1016 30 846 24.98 20.4 68.8 37 5.6 42.1
20:55 1017 30.03 846 24.98 20.5 69 37 5.5 41.9
21:00 1017 30.03 846 24.98 20.5 68.8 37 5.6 42
21:05 1017 30.03 846 24.98 20.4 68.7 38 5.6 42.1
21:10 1017 30.03 846 24.98 20.3 68.5 38 5.8 42.4
21:15 1017 30.03 846 24.98 20.2 68.3 39 6.1 42.9
21:20 1017 30.03 846 24.98 19.9 67.9 40 6.2 43.1
21:25 1017 30.03 846 24.98 19.8 67.7 41 6.3 43.4
21:30 1017 30.03 846 24.98 19.6 67.3 42 6.5 43.7
21:35 1017 30.03 846 24.98 19.4 67 42 6.4 43.5
21:40 1017 30.03 846 24.98 19.5 67 42 6.4 43.5
21:45 1017 30.03 846 24.98 19.5 67 42 6.4 43.4
21:50 1017 30.03 847 25.01 19.5 67 42 6.3 43.4
21:55 1017 30.03 847 25.01 19.5 67.2 42 6.5 43.6
22:00 1017 30.03 847 25.01 19.6 67.4 44 7.3 45.1
22:05 1018 30.06 847 25.01 19.2 66.6 47 7.8 46
22:10 1018 30.06 847 25.01 19 66.2 46 7.4 45.2
22:15 1018 30.06 847 25.01 18.9 66 49 8.1 46.5
22:20 1018 30.06 847 25.01 18.8 65.8 47 7.5 45.4
22:25 1018 30.06 847 25.01 18.8 65.8 49 8 46.4
22:30 1018 30.06 847 25.01 18.6 65.5 49 7.7 45.8
22:35 1018 30.06 847 25.01 18.6 65.4 49 7.8 46.1
22:40 1018 30.06 847 25.01 18.5 65.2 50 7.9 46.2
22:45 1018 30.06 847 25.01 18.4 65 52 8.4 47.1
22:50 1018 30.06 847 25.01 18.1 64.6 55 9.1 48.4
22:55 1018 30.06 847 25.01 17.7 63.8 60 10 50
23:00 1018 30.06 847 25.01 17.1 62.8 63 10.1 50.2
23:05 1018 30.06 847 25.01 16.8 62.3 65 10.4 50.7
23:10 1017 30.03 847 25.01 16.6 61.9 65 10.2 50.4
23:15 1017 30.03 847 25.01 16.6 61.8 66 10.3 50.5
23:20 1017 30.03 847 25.01 16.5 61.8 66 10.2 50.3
23:25 1017 30.03 847 25.01 16.6 61.9 66 10.2 50.4
23:30 1017 30.03 847 25.01 16.7 62.1 65 10.3 50.5
23:35 1018 30.06 847 25.01 16.6 61.9 64 9.8 49.7
23:40 1018 30.06 847 25.01 17.1 62.8 57 8.6 47.5
23:45 1017 30.03 847 25.01 18.4 65.1 50 8 46.4
23:50 1017 30.03 847 25.01 19 66.2 49 8.2 46.8
23:55 1018 30.06 847 25.01 19.1 66.3 51 8.8 47.9
24:00 1018 30.06 847 25.01 18.5 65.3 56 9.8 49.6